HALF-HOURLY OBSERVATIONS INDEX

012

Goldfields

KALGOORLIE-BOULDER AIRPORT

Site: 012038
Alt: 365.3m
4km SSW of KALGOORLIE-BOULDER


  Time     Wind        Temp  DP   Baro     Rain since   Rain past  Vis(m), Cloud(base in m), Weather
  local        km/h                         9am  last   hr   10m    
Mon 08:00  ESE 26/ 32  21.3 18.1  1014.6    5.2   0.0   0.0   0.0   10000|SC 360 
Mon 08:30  ESE 28/ 35  21.9 18.3  1014.4    5.2   0.0   0.0   0.0   10000|SC 480 BR3000 
Mon 09:00  ESE 24/ 32  23.2 18.9  1014.3    5.2   0.0   0.0   0.0   10000|SC 600 SC3300 
Mon 09:30    E 28/ 35  24.0 18.6  1014.2    0.0   0.0   0.0   0.0   10000|SC 660 
Mon 10:00    E 22/ 33  24.5 18.4  1014.1    0.0   0.0   0.0   0.0   10000|SC 780 
Mon 10:30    E 20/ 28  25.7 18.1  1013.6    0.0   0.0   0.0   0.0   10000|SC 780 
Mon 11:00  ENE 20/ 28  26.6 18.5  1012.9    0.0   0.0   0.0   0.0   10000 
Mon 11:30  ENE 19/ 26  27.5 17.9  1012.6    0.0   0.0   0.0   0.0   10000 
Mon 12:00   NE 19/ 28  27.5 17.9  1012.4    0.0   0.0   0.0   0.0   10000 
Mon 12:30  ESE 15/ 22  28.4 18.2  1012.0    0.0   0.0   0.0   0.0   10000 
Mon 13:00    E 15/ 24  29.8 17.9  1011.1    0.0   0.0   0.0   0.0   10000 
Mon 13:30  ENE 13/ 19  30.2 17.3  1010.7    0.0   0.0   0.0   0.0   10000 

LAVERTON AERO

Site: 012305
Alt: 464.3m
2km ENE of LAVERTON


  Time     Wind        Temp  DP   Baro     Rain since   Rain past  Vis(m), Cloud(base in m), Weather
  local        km/h                         9am  last   hr   10m    
Mon 08:00    E 28/ 33  26.3 12.0  1013.2    0.0   0.0   0.0   0.0   ----- 
Mon 08:30    E 28/ 37  26.6 11.1  1013.4    0.0   0.0   0.0   0.0   ----- 
Mon 09:00    E 24/ 35  27.9 11.0  1013.3    0.0   0.0   0.0   0.0   ----- 
Mon 09:30  ENE 24/ 32  29.3 10.4  1013.2    0.0   0.0   0.0   0.0   ----- 
Mon 10:00    N 20/ 28  29.3  9.4  1013.0    0.0   0.0   0.0   0.0   ----- 
Mon 10:30   NE 17/ 32  32.2  9.7  1012.5    0.0   0.0   0.0   0.0   ----- 
Mon 11:00   NE 19/ 28  32.9  9.7  1012.0    0.0   0.0   0.0   0.0   ----- 
Mon 11:30  ENE 13/ 24  33.7  9.0  1011.5    0.0   0.0   0.0   0.0   ----- 
Mon 12:00  ENE 13/ 22  34.3  8.8  1011.0    0.0   0.0   0.0   0.0   ----- 
Mon 12:30  NNE  9/ 20  36.7  9.3  1010.7    0.0   0.0   0.0   0.0   ----- 
Mon 13:00  WNW 15/ 22  36.1  8.0  1010.4    0.0   0.0   0.0   0.0   ----- 
Mon 13:30  WSW 13/ 24  37.5  8.3  1010.0    0.0   0.0   0.0   0.0   ----- 

LEINSTER AERO

Site: 012314
Alt: 497.0m
132km NNW of LEONORA


  Time     Wind        Temp  DP   Baro     Rain since   Rain past  Vis(m), Cloud(base in m), Weather
  local        km/h                         9am  last   hr   10m    
Mon 08:00  ------/---  26.8 12.8  1012.3    0.0   0.0   0.0   0.0   10000 
Mon 08:30  ------/---  27.5 12.3  1012.2    0.0   0.0   0.0   0.0   10000 
Mon 09:00  ------/---  28.6 12.1  1012.0    0.0   0.0   0.0   0.0   10000 
Mon 09:30  ------/---  30.3 11.3  1012.1    0.0   0.0   0.0   0.0   10000 
Mon 10:00  ------/---  31.2 11.6  1011.7    0.0   0.0   0.0   0.0   10000 
Mon 10:30  ------/---  31.9 11.1  1011.4    0.0   0.0   0.0   0.0   10000 
Mon 11:00  ------/---  33.6 11.5  1011.2    0.0   0.0   0.0   0.0   10000 
Mon 11:30  ------/---  34.7 10.5  1010.9    0.0   0.0   0.0   0.0   10000 
Mon 12:00  ------/---  35.0 11.4  1010.5    0.0   0.0   0.0   0.0   10000 
Mon 12:30  ------/---  35.6 10.6  1010.1    0.0   0.0   0.0   0.0   10000 
Mon 13:00  ------/---  36.3 11.9  1009.6    0.0   0.0   0.0   0.0   10000 
Mon 13:30  ------/---  37.5 12.2  1009.2    0.0   0.0   0.0   0.0   10000 

LEONORA AERO

Site: 012241
Alt: 370.0m
1km WNW of LEONORA


  Time     Wind        Temp  DP   Baro     Rain since   Rain past  Vis(m), Cloud(base in m), Weather
  local        km/h                         9am  last   hr   10m    
Mon 08:00  ESE 20/ 30  25.1 14.9  1012.7    0.0   0.0   0.0   0.0   10000 
Mon 08:30    E 22/ 32  26.1 13.2  1012.6    0.0   0.0   0.0   0.0   10000 
Mon 09:00    E 22/ 32  27.0 13.0  1012.6    0.0   0.0   0.0   0.0   10000 
Mon 09:30    E 19/ 28  28.5 12.4  1012.2    0.0   0.0   0.0   0.0   10000 
Mon 10:00    E 20/ 28  29.8 11.8  1012.0    0.0   0.0   0.0   0.0   10000 
Mon 10:30  ENE 17/ 26  30.5 11.5  1011.7    0.0   0.0   0.0   0.0   10000 
Mon 11:00  ENE 15/ 24  31.5 11.3  1011.3    0.0   0.0   0.0   0.0   10000 
Mon 11:30  ESE  6/ 15  33.0 10.9  1011.0    0.0   0.0   0.0   0.0   10000 
Mon 12:00   NE  6/ 15  33.9 10.5  1010.7    0.0   0.0   0.0   0.0   10000 
Mon 12:30    N  6/ 11  34.3  9.5  1010.1    0.0   0.0   0.0   0.0   10000 
Mon 13:00  NNW 11/ 19  34.8  9.3  1009.3    0.0   0.0   0.0   0.0   10000 
Mon 13:30  WNW  2/ 11  36.6 10.0  1008.8    0.0   0.0   0.0   0.0   10000 

MOUNT KEITH AIRPORT

Site: 012MNE
Alt: 570m
71km NNW of LEINSTER


  Time     Wind        Temp  DP   Baro     Rain since   Rain past  Vis(m), Cloud(base in m), Weather
  local        km/h                         9am  last   hr   10m    
Mon 08:00    E 17/ 24  27.3 12.9  1012.8    0.4   0.0   0.0   0.0   10000 
Mon 08:30    E 17/ 24  28.0 12.4  1012.8    0.4   0.0   0.0   0.0   10000 
Mon 09:00    E 13/ 20  29.7 11.2  1012.9    0.4   0.0   0.0   0.0   10000 
Mon 09:30  ENE 13/ 20  30.5 10.5  1012.8    0.0   0.0   0.0   0.0   10000 
Mon 10:00    E 13/ 20  31.0 10.4  1012.7    0.0   0.0   0.0   0.0   10000 
Mon 10:30  ENE 15/ 22  32.3 10.4  1012.4    0.0   0.0   0.0   0.0   10000 
Mon 11:00  ENE 13/ 20  33.5 10.2  1012.0    0.0   0.0   0.0   0.0   10000 
Mon 11:30   NE 13/ 20  34.3 10.2  1011.9    0.0   0.0   0.0   0.0   10000 
Mon 12:00    N  7/ 17  35.3 10.4  1011.3    0.0   0.0   0.0   0.0   10000 
Mon 12:30   NW 11/ 19  36.3 11.2  1010.8    0.0   0.0   0.0   0.0   10000 
Mon 13:00  WSW 17/ 28  36.9 11.7  1010.4    0.0   0.0   0.0   0.0   10000 
Mon 13:30    W 20/ 26  37.4 11.4  1010.2    0.0   0.0   0.0   0.0   10000 

MUNGLINUP WEST

Site: 012044
Alt: 220.0m
60km E of RAVENSTHORPE


  Time     Wind        Temp  DP   Baro     Rain since   Rain past  Vis(m), Cloud(base in m), Weather
  local        km/h                         9am  last   hr   10m    
Mon 08:00  ENE 17/ 24  17.3 16.3  1016.9    6.0   0.0   0.0   0.0   ----- 
Mon 08:30  ENE 17/ 24  17.9 16.4  1016.8    6.0   0.0   0.0   0.0   ----- 
Mon 09:00   NE 15/ 20  18.6 16.6  1017.0    6.0   0.0   0.0   0.0   ----- 
Mon 09:30  ENE 13/ 20  19.4 16.6  1016.7    0.0   0.0   0.0   0.0   ----- 
Mon 10:00  ENE 15/ 20  20.4 17.0  1016.2    0.0   0.0   0.0   0.0   ----- 
Mon 10:30  ENE 13/ 20  20.6 17.0  1015.7    0.0   0.0   0.0   0.0   ----- 
Mon 11:00  ENE 11/ 15  22.0 17.6  1014.8    0.0   0.0   0.0   0.0   ----- 
Mon 11:30  ENE 13/ 19  22.8 17.5  1014.4    0.0   0.0   0.0   0.0   ----- 
Mon 12:00  ENE 11/ 22  24.8 18.0  1013.9    0.0   0.0   0.0   0.0   ----- 
Mon 12:30  ENE 13/ 24  26.3 18.4  1013.0    0.0   0.0   0.0   0.0   ----- 
Mon 13:00  ENE 13/ 22  26.8 18.4  1012.6    0.0   0.0   0.0   0.0   ----- 
Mon 13:30   NE  9/ 15  27.8 17.9  1012.2    0.0   0.0   0.0   0.0   ----- 

NORSEMAN AERO

Site: 012009
Alt: 262.5m
3km SW of NORSEMAN


  Time     Wind        Temp  DP   Baro     Rain since   Rain past  Vis(m), Cloud(base in m), Weather
  local        km/h                         9am  last   hr   10m    
Mon 08:00  ENE 11/ 15  18.5 17.7  1016.4   18.0   0.0   0.0   0.0   ----- 
Mon 08:30  ENE 13/ 17  18.9 17.9  1016.3   18.0   0.0   0.0   0.0   ----- 
Mon 09:00  ENE 13/ 20  19.2 18.0  1016.1   18.0   0.0   0.0   0.0   ----- 
Mon 09:30    E 11/ 15  19.7 18.4  1015.7    0.0   0.0   0.0   0.0   ----- 
Mon 10:00    E 11/ 17  21.7 19.3  1015.3    0.0   0.0   0.0   0.0   ----- 
Mon 10:30  ESE 13/ 20  22.3 18.9  1014.6    0.0   0.0   0.0   0.0   ----- 
Mon 11:00   SE  7/ 13  23.4 18.9  1014.0    0.2   0.2   0.2   0.0   ----- 
Mon 11:30    E 13/ 19  24.8 20.9  1013.5    0.2   0.0   0.2   0.0   ----- 
Mon 12:00  ESE 13/ 22  26.1 20.4  1012.9    0.2   0.0   0.0   0.0   ----- 
Mon 12:30    E 15/ 26  27.1 20.4  1012.0    0.2   0.0   0.0   0.0   ----- 
Mon 13:00  ESE 13/ 24  28.4 21.4  1011.5    0.2   0.0   0.0   0.0   ----- 
Mon 13:30  ESE 13/ 24  28.8 20.3  1010.9    0.2   0.0   0.0   0.0   ----- 

SALMON GUMS RES.STN.

Site: 012071
Alt: 249.0m
89km S of NORSEMAN


  Time     Wind        Temp  DP   Baro     Rain since   Rain past  Vis(m), Cloud(base in m), Weather
  local        km/h                         9am  last   hr   10m    
Mon 08:00    E 11/ 17  17.9 16.8  ------   13.4   0.0   0.0   0.0   ----- 
Mon 08:30    E 13/ 17  18.6 17.1  ------   13.4   0.0   0.0   0.0   ----- 
Mon 09:00  ENE 13/ 19  19.1 16.9  ------   13.4   0.0   0.0   0.0   ----- 
Mon 09:30    E 11/ 17  20.5 18.3  ------    0.0   0.0   0.0   0.0   ----- 
Mon 10:00    E 11/ 17  21.4 17.8  ------    0.0   0.0   0.0   0.0   ----- 
Mon 10:30    E 11/ 15  22.7 17.8  ------    0.0   0.0   0.0   0.0   ----- 
Mon 11:00    E 11/ 17  23.1 18.4  ------    0.0   0.0   0.0   0.0   ----- 

SOUTHERN CROSS AIRFIELD

Site: 012320
Alt: 347.4m
3km ESE of SOUTHERN CROSS


  Time     Wind        Temp  DP   Baro     Rain since   Rain past  Vis(m), Cloud(base in m), Weather
  local        km/h                         9am  last   hr   10m    
Mon 08:00    E 19/ 26  20.9 18.3  1015.0   12.4   0.0   0.0   0.0   10000|SC 360 OC2760 
Mon 08:30  ENE 19/ 28  21.4 18.2  1015.0   12.4   0.0   0.0   0.0   10000|SC 420 OC2700 
Mon 09:00  ENE 20/ 28  23.1 18.4  1014.4   12.4   0.0   0.0   0.0   10000|SC 540 BR2700 
Mon 09:30  ENE 22/ 30  23.3 18.2  1014.1    0.0   0.0   0.0   0.0   10000|BR 600 
Mon 10:00  ENE 15/ 22  24.1 17.8  1014.1    0.0   0.0   0.0   0.0   10000|BR 720 
Mon 10:30  ENE 20/ 26  25.2 17.4  1013.6    0.0   0.0   0.0   0.0   10000|SC 840 
Mon 11:00   NE 19/ 28  26.1 17.2  1013.0    0.0   0.0   0.0   0.0   10000|SC 900 
Mon 11:30   NE 17/ 20  27.1 17.8  1012.6    0.0   0.0   0.0   0.0   10000 
Mon 12:00    N 13/ 20  27.6 18.3  1012.3    0.0   0.0   0.0   0.0   10000 
Mon 12:30    N 13/ 24  28.7 19.1  1011.9    0.0   0.0   0.0   0.0   10000|SC1080 
Mon 13:00  NNE 13/ 24  28.6 18.4  1011.4    0.0   0.0   0.0   0.0   10000 
Mon 13:30   NE 11/ 20  28.8 18.0  1010.9    0.0   0.0   0.0   0.0   10000